createdAt,value
2019-04-30T00:00:03.277Z,4.10
2019-04-30T00:02:40.001Z,4.20
2019-04-30T00:05:10.055Z,4.13
2019-04-30T00:07:41.239Z,5.30
2019-04-30T00:10:11.380Z,4.70
2019-04-30T00:12:41.241Z,4.67
2019-04-30T00:15:17.886Z,4.57
2019-04-30T00:17:42.488Z,4.43
2019-04-30T00:20:15.138Z,4.63
2019-04-30T00:22:47.046Z,5.43
2019-04-30T00:25:19.596Z,6.87
2019-04-30T00:27:48.545Z,6.77
2019-04-30T00:30:18.555Z,6.73
2019-04-30T00:32:48.200Z,5.73
2019-04-30T00:35:19.757Z,5.97
2019-04-30T00:37:52.010Z,5.47
2019-04-30T00:40:21.634Z,5.13
2019-04-30T00:42:52.768Z,5.53
2019-04-30T00:45:22.786Z,4.67
2019-04-30T00:47:52.759Z,5.70
2019-04-30T00:50:22.437Z,6.37
2019-04-30T00:52:52.141Z,6.10
2019-04-30T00:55:21.853Z,5.93
2019-04-30T00:57:51.619Z,6.10
2019-04-30T01:00:25.967Z,5.80
2019-04-30T01:03:09.374Z,5.30
2019-04-30T01:05:39.628Z,5.33
2019-04-30T01:08:09.888Z,5.33
2019-04-30T01:10:39.633Z,5.60
2019-04-30T01:13:11.972Z,6.80
2019-04-30T01:15:43.888Z,6.80
2019-04-30T01:18:13.324Z,7.73
2019-04-30T01:20:43.053Z,8.30
2019-04-30T01:23:15.745Z,7.63
2019-04-30T01:25:49.893Z,7.07
2019-04-30T01:28:23.140Z,7.23
2019-04-30T01:30:49.554Z,7.13
2019-04-30T01:33:19.294Z,6.40
2019-04-30T01:35:50.999Z,7.67
2019-04-30T01:38:20.748Z,7.83
2019-04-30T01:40:51.142Z,8.50
2019-04-30T01:43:30.480Z,8.33
2019-04-30T01:45:52.612Z,8.17
2019-04-30T01:48:23.393Z,8.63
2019-04-30T01:50:53.122Z,7.77
2019-04-30T01:53:22.804Z,8.00
2019-04-30T01:56:12.906Z,8.17
2019-04-30T01:58:49.527Z,8.00
2019-04-30T02:01:21.312Z,7.63
2019-04-30T02:03:50.942Z,7.07
2019-04-30T02:06:20.672Z,7.93
2019-04-30T02:08:50.469Z,7.40
2019-04-30T02:11:20.178Z,7.80
2019-04-30T02:13:49.817Z,7.23
2019-04-30T02:16:21.072Z,7.53
2019-04-30T02:18:50.969Z,8.13
2019-04-30T02:21:20.681Z,8.67
2019-04-30T02:23:50.458Z,8.83
2019-04-30T02:26:20.188Z,9.30
2019-04-30T02:28:50.286Z,8.57
2019-04-30T02:31:22.862Z,9.33
2019-04-30T02:33:54.317Z,8.77
2019-04-30T02:36:34.788Z,10.30
2019-04-30T02:39:06.237Z,9.90
2019-04-30T02:41:40.857Z,9.23
2019-04-30T02:44:10.265Z,10.57
2019-04-30T02:46:41.691Z,10.47
2019-04-30T02:49:12.891Z,9.60
2019-04-30T02:51:43.959Z,8.50
2019-04-30T02:54:23.245Z,8.77
2019-04-30T02:57:06.951Z,9.47
2019-04-30T02:59:40.283Z,10.40
2019-04-30T03:02:11.691Z,10.60
2019-04-30T03:04:42.706Z,10.83
2019-04-30T03:07:12.435Z,9.80
2019-04-30T03:09:42.405Z,10.33
2019-04-30T03:12:12.157Z,10.07
2019-04-30T03:14:41.858Z,10.77
2019-04-30T03:17:24.166Z,11.60
2019-04-30T03:20:03.102Z,11.33
2019-04-30T03:22:30.465Z,9.47
2019-04-30T03:25:00.146Z,9.37
2019-04-30T03:27:30.259Z,10.63
2019-04-30T03:30:00.214Z,9.00
2019-04-30T03:32:31.789Z,9.30
2019-04-30T03:35:03.265Z,10.93
2019-04-30T03:37:32.715Z,10.23
2019-04-30T03:40:02.399Z,10.70
2019-04-30T03:42:32.768Z,10.93
2019-04-30T03:45:02.501Z,9.60
2019-04-30T03:47:32.217Z,11.50
2019-04-30T03:50:02.125Z,10.17
2019-04-30T03:52:32.018Z,11.10
2019-04-30T03:55:03.154Z,11.17
2019-04-30T03:57:32.934Z,11.90
2019-04-30T04:00:02.628Z,10.13
2019-04-30T04:02:40.871Z,10.87
2019-04-30T04:05:29.811Z,10.77
2019-04-30T04:08:25.134Z,10.63
2019-04-30T04:11:00.526Z,10.43
2019-04-30T04:13:33.020Z,10.77
2019-04-30T04:16:01.586Z,11.40
2019-04-30T04:18:32.254Z,10.70
2019-04-30T04:21:11.540Z,11.00
2019-04-30T04:23:34.326Z,11.03
2019-04-30T04:26:04.967Z,10.13
2019-04-30T04:28:34.684Z,10.17
2019-04-30T04:31:04.890Z,10.90
2019-04-30T04:33:34.696Z,11.20
2019-04-30T04:36:05.142Z,10.67
2019-04-30T04:38:35.008Z,11.27
2019-04-30T04:41:05.053Z,10.47
2019-04-30T04:43:34.771Z,10.87
2019-04-30T04:46:04.890Z,10.43
2019-04-30T04:48:34.624Z,10.33
2019-04-30T04:51:05.078Z,10.70
2019-04-30T04:53:34.830Z,10.30
2019-04-30T04:56:04.960Z,10.20
2019-04-30T04:58:35.669Z,10.13
2019-04-30T05:01:05.476Z,10.27
2019-04-30T05:03:39.765Z,9.38
2019-04-30T05:06:11.499Z,9.70
2019-04-30T05:08:40.258Z,9.37
2019-04-30T05:11:10.093Z,9.03
2019-04-30T05:13:39.746Z,9.47
2019-04-30T05:16:09.470Z,9.57
2019-04-30T05:18:39.250Z,9.80
2019-04-30T05:21:08.983Z,9.73
2019-04-30T05:23:42.478Z,10.03
2019-04-30T05:26:11.256Z,10.20
2019-04-30T05:28:41.406Z,9.17
2019-04-30T05:31:11.237Z,9.45
2019-04-30T05:33:40.847Z,10.15
2019-04-30T05:36:10.480Z,9.93
2019-04-30T05:38:41.205Z,9.50
2019-04-30T05:41:10.858Z,9.83
2019-04-30T05:43:40.961Z,9.63
2019-04-30T05:46:14.055Z,10.98
2019-04-30T05:48:42.965Z,11.45
2019-04-30T05:51:12.589Z,10.65
2019-04-30T05:53:42.580Z,10.85
2019-04-30T05:56:12.315Z,11.45
2019-04-30T05:58:42.120Z,12.03
2019-04-30T06:01:11.754Z,10.70
2019-04-30T06:03:41.414Z,12.10
2019-04-30T06:06:11.517Z,11.83
2019-04-30T06:08:49.049Z,12.33
2019-04-30T06:11:39.335Z,12.85
2019-04-30T06:14:28.631Z,12.95
2019-04-30T06:17:23.790Z,12.43
2019-04-30T06:19:53.409Z,14.35
2019-04-30T06:22:23.809Z,13.10
2019-04-30T06:24:53.582Z,13.05
2019-04-30T06:27:23.210Z,12.90
2019-04-30T06:29:52.970Z,13.80
2019-04-30T06:32:22.665Z,13.93
2019-04-30T06:34:52.465Z,13.13
2019-04-30T06:37:22.657Z,14.50
2019-04-30T06:39:52.377Z,13.70
2019-04-30T06:42:22.593Z,14.43
2019-04-30T06:44:52.780Z,13.60
2019-04-30T06:47:32.814Z,14.40
2019-04-30T06:49:54.234Z,13.62
2019-04-30T06:52:23.878Z,13.95
2019-04-30T06:54:53.530Z,14.40
2019-04-30T06:57:23.213Z,14.47
2019-04-30T06:59:52.825Z,14.05
2019-04-30T07:02:22.482Z,13.78
2019-04-30T07:04:52.350Z,15.08
2019-04-30T07:07:30.780Z,15.27
2019-04-30T07:10:02.743Z,15.23
2019-04-30T07:12:51.457Z,14.05
2019-04-30T07:15:21.373Z,14.20
2019-04-30T07:17:51.033Z,14.03
2019-04-30T07:20:20.656Z,14.85
2019-04-30T07:22:59.073Z,16.57
2019-04-30T07:25:22.384Z,15.10
2019-04-30T07:27:52.046Z,16.50
2019-04-30T07:30:21.736Z,14.75
2019-04-30T07:32:51.365Z,14.95
2019-04-30T07:35:21.052Z,15.05
2019-04-30T07:37:54.631Z,15.40
2019-04-30T07:40:22.077Z,14.40
2019-04-30T07:42:51.720Z,15.00
2019-04-30T07:45:25.438Z,14.75
2019-04-30T07:47:52.735Z,15.95
2019-04-30T07:50:23.071Z,15.40
2019-04-30T07:53:04.716Z,16.42
2019-04-30T07:55:24.602Z,15.20
2019-04-30T07:57:54.264Z,15.63
2019-04-30T08:02:51.167Z,14.78
2019-04-30T08:05:29.731Z,15.38
2019-04-30T08:08:16.686Z,16.65
2019-04-30T08:10:30.183Z,15.65
2019-04-30T08:13:08.648Z,15.78
2019-04-30T08:15:31.177Z,16.15
2019-04-30T08:18:05.555Z,15.40
2019-04-30T08:20:33.097Z,15.32
2019-04-30T08:23:13.355Z,16.57
2019-04-30T08:25:34.205Z,15.45
2019-04-30T08:28:05.097Z,15.63
2019-04-30T08:30:34.761Z,15.55
2019-04-30T08:33:04.871Z,15.18
2019-04-30T08:35:34.609Z,16.37
2019-04-30T08:38:04.957Z,15.25
2019-04-30T08:40:34.661Z,16.52
2019-04-30T08:43:04.990Z,15.93
2019-04-30T08:45:34.909Z,16.20
2019-04-30T08:48:05.821Z,15.83
2019-04-30T08:50:35.482Z,15.35
2019-04-30T08:53:05.189Z,16.37
2019-04-30T08:55:34.877Z,15.72
2019-04-30T08:58:09.766Z,16.20
2019-04-30T09:00:38.440Z,14.60
2019-04-30T09:03:09.378Z,15.10
2019-04-30T09:06:16.977Z,16.73
2019-04-30T09:08:48.996Z,15.38
2019-04-30T09:11:24.747Z,16.90
2019-04-30T09:13:50.123Z,16.55
2019-04-30T09:16:19.842Z,15.93
2019-04-30T09:18:51.177Z,14.65
2019-04-30T09:21:20.976Z,16.40
2019-04-30T09:23:52.822Z,18.05
2019-04-30T09:26:22.048Z,17.15
2019-04-30T09:28:52.520Z,17.45
2019-04-30T09:31:22.142Z,17.00
2019-04-30T09:33:52.857Z,16.48
2019-04-30T09:36:22.561Z,15.60
2019-04-30T09:38:52.244Z,15.20
2019-04-30T09:41:21.963Z,16.30
2019-04-30T09:43:51.680Z,16.20
2019-04-30T09:46:26.731Z,17.05
2019-04-30T09:48:52.646Z,16.82
2019-04-30T09:51:24.314Z,16.48
2019-04-30T09:53:58.811Z,16.07
2019-04-30T09:56:25.037Z,15.40
2019-04-30T09:58:55.721Z,16.55
2019-04-30T10:01:26.474Z,16.50
2019-04-30T10:03:56.461Z,16.17
2019-04-30T10:06:37.035Z,15.75
2019-04-30T10:08:59.631Z,16.65
2019-04-30T10:11:52.766Z,16.93
2019-04-30T10:14:22.405Z,16.05
2019-04-30T10:17:04.414Z,17.02
2019-04-30T10:19:34.079Z,17.05
2019-04-30T10:22:03.785Z,16.27
2019-04-30T10:24:34.017Z,16.73
2019-04-30T10:27:06.914Z,16.55
2019-04-30T10:29:35.669Z,16.15
2019-04-30T10:32:05.402Z,16.48
2019-04-30T10:34:35.074Z,15.95
2019-04-30T10:37:05.058Z,15.78
2019-04-30T10:39:34.787Z,17.37
2019-04-30T10:42:05.201Z,17.37
2019-04-30T10:44:34.946Z,16.95
2019-04-30T10:47:05.047Z,16.55
2019-04-30T10:49:35.679Z,17.17
2019-04-30T10:52:06.033Z,16.80
2019-04-30T10:54:38.790Z,17.27
2019-04-30T10:57:08.675Z,16.25
2019-04-30T10:59:40.704Z,16.07
2019-04-30T11:02:10.334Z,16.02
2019-04-30T11:04:40.056Z,16.30
2019-04-30T11:07:09.849Z,15.55
2019-04-30T11:09:39.573Z,15.95
2019-04-30T11:12:09.571Z,16.60
2019-04-30T11:14:39.421Z,16.40
2019-04-30T11:17:09.894Z,16.35
2019-04-30T11:19:39.923Z,16.82
2019-04-30T11:22:10.295Z,16.00
2019-04-30T11:24:54.083Z,16.42
2019-04-30T11:27:12.611Z,16.02
2019-04-30T11:29:42.843Z,16.40
2019-04-30T11:32:20.077Z,17.80
2019-04-30T11:34:50.082Z,17.40
2019-04-30T11:37:20.177Z,16.45
2019-04-30T11:39:49.926Z,16.87
2019-04-30T11:42:19.709Z,17.25
2019-04-30T11:44:49.446Z,16.15
2019-04-30T11:47:32.306Z,16.02
2019-04-30T11:50:02.770Z,17.23
2019-04-30T11:52:32.842Z,16.23
2019-04-30T11:55:02.613Z,15.78
2019-04-30T11:57:33.461Z,16.52
2019-04-30T12:00:03.420Z,15.30
2019-04-30T12:02:41.254Z,15.40
2019-04-30T12:05:13.255Z,15.68
2019-04-30T12:08:03.145Z,16.12
2019-04-30T12:10:54.735Z,15.60
2019-04-30T12:13:29.871Z,16.20
2019-04-30T12:15:59.935Z,17.62
2019-04-30T12:18:29.965Z,16.37
2019-04-30T12:20:59.667Z,17.67
2019-04-30T12:23:30.301Z,16.73
2019-04-30T12:26:02.681Z,16.82
2019-04-30T12:28:31.292Z,17.80
2019-04-30T12:31:02.029Z,17.07
2019-04-30T12:33:34.697Z,15.60
2019-04-30T12:36:06.596Z,18.92
2019-04-30T12:38:37.284Z,18.35
2019-04-30T12:41:07.023Z,16.70
2019-04-30T12:43:36.709Z,16.87
2019-04-30T12:46:06.459Z,18.15
2019-04-30T12:49:01.382Z,18.92
2019-04-30T12:51:45.593Z,18.67
2019-04-30T12:54:16.886Z,18.40
2019-04-30T12:57:04.430Z,17.12
2019-04-30T12:59:34.248Z,16.20
2019-04-30T13:02:04.954Z,16.95
2019-04-30T13:04:34.612Z,17.80
2019-04-30T13:07:05.578Z,15.75
2019-04-30T13:09:36.228Z,16.02
2019-04-30T13:12:06.435Z,17.52
2019-04-30T13:14:51.126Z,22.42
2019-04-30T13:17:08.674Z,26.30
2019-04-30T13:19:38.349Z,24.82
2019-04-30T13:22:09.084Z,18.57
2019-04-30T13:24:39.997Z,15.00
2019-04-30T13:27:10.745Z,14.13
2019-04-30T13:29:59.482Z,13.85
2019-04-30T13:32:32.880Z,14.58
2019-04-30T13:35:02.619Z,15.13
2019-04-30T13:37:41.601Z,14.07
2019-04-30T13:40:28.852Z,15.13
2019-04-30T13:42:58.626Z,13.48
2019-04-30T13:45:29.360Z,14.78
2019-04-30T13:47:59.291Z,15.23
2019-04-30T13:50:29.941Z,13.40
2019-04-30T13:52:59.591Z,14.73
2019-04-30T13:55:37.211Z,16.42
2019-04-30T13:58:00.609Z,15.15
2019-04-30T14:00:30.859Z,16.00
2019-04-30T14:03:22.957Z,16.20
2019-04-30T14:05:52.590Z,15.88
2019-04-30T14:08:30.813Z,14.30
2019-04-30T14:11:00.769Z,14.83
2019-04-30T14:13:30.432Z,14.85
2019-04-30T14:16:00.189Z,13.85
2019-04-30T14:18:33.806Z,14.83
2019-04-30T14:21:01.421Z,13.53
2019-04-30T14:23:31.194Z,12.78
2019-04-30T14:26:01.161Z,13.65
2019-04-30T14:28:30.982Z,14.40
2019-04-30T14:31:00.700Z,12.18
2019-04-30T14:33:30.406Z,13.08
2019-04-30T14:36:00.786Z,12.85
2019-04-30T14:38:30.608Z,12.45
2019-04-30T14:41:01.504Z,13.98
2019-04-30T14:44:03.126Z,13.38
2019-04-30T14:47:11.620Z,13.55
2019-04-30T14:50:02.648Z,13.40
2019-04-30T14:52:29.805Z,16.12
2019-04-30T14:55:36.943Z,14.23
2019-04-30T14:58:25.721Z,13.03
2019-04-30T15:01:02.470Z,13.95
2019-04-30T15:03:33.357Z,14.03
2019-04-30T15:06:03.184Z,14.58
2019-04-30T15:08:32.907Z,13.58
2019-04-30T15:11:03.836Z,15.08
2019-04-30T15:13:33.788Z,12.93
2019-04-30T15:16:03.627Z,13.03
2019-04-30T15:18:33.265Z,12.93
2019-04-30T15:21:02.941Z,14.18
2019-04-30T15:23:58.559Z,12.90
2019-04-30T15:26:25.089Z,13.55
2019-04-30T15:28:53.746Z,12.50
2019-04-30T15:31:23.632Z,13.28
2019-04-30T15:34:10.831Z,13.08
2019-04-30T15:36:39.370Z,15.20
2019-04-30T15:39:48.994Z,13.75
2019-04-30T15:42:21.432Z,14.43
2019-04-30T15:44:51.080Z,13.68
2019-04-30T15:47:22.682Z,14.50
2019-04-30T15:49:52.346Z,13.72
2019-04-30T15:52:23.109Z,13.87
2019-04-30T15:54:52.753Z,14.50
2019-04-30T15:57:22.465Z,14.15
2019-04-30T15:59:51.653Z,14.10
2019-04-30T16:02:30.002Z,11.93
2019-04-30T16:05:12.168Z,12.80
2019-04-30T16:07:58.732Z,13.25
2019-04-30T16:10:46.516Z,13.60
2019-04-30T16:13:19.559Z,13.28
2019-04-30T16:15:49.343Z,13.03
2019-04-30T16:18:19.625Z,13.22
2019-04-30T16:20:49.861Z,12.73
2019-04-30T16:23:20.839Z,13.90
2019-04-30T16:25:50.482Z,13.10
2019-04-30T16:28:21.195Z,12.88
2019-04-30T16:30:51.034Z,12.33
2019-04-30T16:33:21.722Z,12.58
2019-04-30T16:35:51.398Z,12.05
2019-04-30T16:38:21.405Z,11.65
2019-04-30T16:40:51.064Z,12.35
2019-04-30T16:43:20.750Z,11.90
2019-04-30T16:45:50.484Z,10.75
2019-04-30T16:48:21.230Z,11.60
2019-04-30T16:50:51.295Z,11.40
2019-04-30T16:53:21.047Z,11.33
2019-04-30T16:55:50.759Z,11.55
2019-04-30T16:58:20.541Z,11.88
2019-04-30T17:00:50.417Z,11.45
2019-04-30T17:03:28.724Z,11.33
2019-04-30T17:06:04.589Z,10.82
2019-04-30T17:08:39.237Z,11.45
2019-04-30T17:11:14.906Z,11.38
2019-04-30T17:13:51.647Z,11.65
2019-04-30T17:16:22.638Z,10.98
2019-04-30T17:18:52.613Z,10.32
2019-04-30T17:21:22.662Z,10.60
2019-04-30T17:23:52.480Z,10.78
2019-04-30T17:26:23.334Z,11.73
2019-04-30T17:28:53.006Z,13.13
2019-04-30T17:31:22.689Z,10.68
2019-04-30T17:33:54.269Z,11.68
2019-04-30T17:36:24.000Z,10.85
2019-04-30T17:38:53.708Z,10.93
2019-04-30T17:41:23.452Z,11.08
2019-04-30T17:43:54.359Z,10.68
2019-04-30T17:46:24.068Z,11.08
2019-04-30T17:48:53.793Z,10.93
2019-04-30T17:51:23.485Z,10.53
2019-04-30T17:54:11.494Z,11.28
2019-04-30T17:56:44.306Z,10.72
2019-04-30T17:59:14.160Z,10.28
2019-04-30T18:01:50.490Z,9.93
2019-04-30T18:04:22.142Z,10.45
2019-04-30T18:06:51.742Z,11.57
2019-04-30T18:09:21.846Z,11.25
2019-04-30T18:11:51.622Z,11.83
2019-04-30T18:14:21.521Z,10.78
2019-04-30T18:16:51.236Z,10.98
2019-04-30T18:19:49.777Z,11.03
2019-04-30T18:22:31.742Z,11.15
2019-04-30T18:25:23.446Z,10.82
2019-04-30T18:27:59.535Z,11.30
2019-04-30T18:30:33.656Z,11.15
2019-04-30T18:33:05.362Z,11.70
2019-04-30T18:35:38.678Z,12.75
2019-04-30T18:38:09.764Z,11.57
2019-04-30T18:40:39.919Z,11.70
2019-04-30T18:43:10.101Z,11.93
2019-04-30T18:45:39.824Z,12.18
2019-04-30T18:48:10.685Z,11.63
2019-04-30T18:50:40.401Z,11.60
2019-04-30T18:53:15.520Z,12.25
2019-04-30T18:55:45.700Z,11.93
2019-04-30T18:58:15.713Z,12.75
2019-04-30T19:00:45.528Z,11.80
2019-04-30T19:03:15.241Z,11.57
2019-04-30T19:05:49.222Z,12.23
2019-04-30T19:08:39.493Z,11.65
2019-04-30T19:11:28.939Z,11.57
2019-04-30T19:14:19.394Z,12.37
2019-04-30T19:17:11.186Z,12.40
2019-04-30T19:20:06.238Z,13.30
2019-04-30T19:22:36.272Z,12.68
2019-04-30T19:25:06.390Z,13.95
2019-04-30T19:27:36.375Z,12.60
2019-04-30T19:30:06.414Z,14.28
2019-04-30T19:32:36.186Z,13.70
2019-04-30T19:35:06.465Z,13.85
2019-04-30T19:37:36.183Z,13.40
2019-04-30T19:40:08.931Z,14.50
2019-04-30T19:42:39.569Z,13.40
2019-04-30T19:45:12.410Z,14.00
2019-04-30T19:47:41.200Z,15.25
2019-04-30T19:50:14.028Z,15.45
2019-04-30T19:52:42.976Z,16.60
2019-04-30T19:55:13.173Z,16.57
2019-04-30T19:57:42.851Z,18.27
2019-04-30T20:00:13.588Z,18.45
2019-04-30T20:02:43.306Z,17.32
2019-04-30T20:05:13.145Z,18.00
2019-04-30T20:07:49.314Z,19.17
2019-04-30T20:10:19.657Z,19.05
2019-04-30T20:12:49.893Z,19.82
2019-04-30T20:15:24.336Z,20.57
2019-04-30T20:17:51.986Z,19.87
2019-04-30T20:20:22.100Z,19.48
2019-04-30T20:22:52.100Z,18.65
2019-04-30T20:25:21.955Z,20.30
2019-04-30T20:27:51.660Z,19.50
2019-04-30T20:30:21.532Z,20.05
2019-04-30T20:32:52.418Z,19.82
2019-04-30T20:35:22.155Z,19.45
2019-04-30T20:38:29.311Z,19.27
2019-04-30T20:41:02.785Z,17.80
2019-04-30T20:43:30.574Z,17.77
2019-04-30T20:46:00.827Z,18.50
2019-04-30T20:48:30.797Z,19.67
2019-04-30T20:51:01.414Z,19.05
2019-04-30T20:53:31.345Z,18.23
2019-04-30T20:56:01.224Z,18.10
2019-04-30T20:58:30.869Z,19.52
2019-04-30T21:01:06.131Z,19.98
2019-04-30T21:03:32.242Z,18.37
2019-04-30T21:06:01.938Z,19.92
2019-04-30T21:08:31.684Z,18.92
2019-04-30T21:11:01.445Z,18.73
2019-04-30T21:13:32.132Z,17.95
2019-04-30T21:16:01.813Z,19.98
2019-04-30T21:18:32.534Z,18.65
2019-04-30T21:21:02.412Z,17.82
2019-04-30T21:23:32.147Z,18.17
2019-04-30T21:26:01.959Z,18.52
2019-04-30T21:28:31.592Z,18.48
2019-04-30T21:31:20.490Z,18.30
2019-04-30T21:33:52.057Z,18.62
2019-04-30T21:36:23.697Z,19.17
2019-04-30T21:38:53.576Z,18.55
2019-04-30T21:41:24.379Z,18.77
2019-04-30T21:43:54.041Z,18.30
2019-04-30T21:46:23.813Z,17.62
2019-04-30T21:48:53.552Z,18.23
2019-04-30T21:51:24.265Z,18.95
2019-04-30T21:53:54.018Z,18.52
2019-04-30T21:56:23.785Z,19.13
2019-04-30T21:58:53.526Z,18.85
2019-04-30T22:01:26.513Z,18.60
2019-04-30T22:03:57.476Z,19.25
2019-04-30T22:06:27.131Z,19.17
2019-04-30T22:08:58.568Z,19.35
2019-04-30T22:11:29.638Z,19.98
2019-04-30T22:13:59.606Z,20.00
2019-04-30T22:16:30.283Z,20.68
2019-04-30T22:18:59.978Z,20.23
2019-04-30T22:21:30.362Z,20.32
2019-04-30T22:24:00.269Z,19.70
2019-04-30T22:26:29.956Z,20.30
2019-04-30T22:28:59.649Z,20.90
2019-04-30T22:31:29.734Z,19.85
2019-04-30T22:33:59.653Z,20.00
2019-04-30T22:36:34.157Z,19.40
2019-04-30T22:39:21.894Z,20.15
2019-04-30T22:41:53.174Z,18.95
2019-04-30T22:44:22.881Z,20.12
2019-04-30T22:46:52.620Z,21.02
2019-04-30T22:49:22.421Z,20.95
2019-04-30T22:51:52.229Z,20.70
2019-04-30T22:54:21.917Z,20.15
2019-04-30T22:56:51.665Z,21.62
2019-04-30T22:59:21.417Z,21.97
2019-04-30T23:02:06.842Z,21.85
2019-04-30T23:04:41.671Z,20.02
2019-04-30T23:07:11.381Z,20.45
2019-04-30T23:09:41.390Z,21.62
2019-04-30T23:12:11.194Z,19.45
2019-04-30T23:14:41.320Z,21.05
2019-04-30T23:17:11.107Z,20.20
2019-04-30T23:19:40.869Z,21.93
2019-04-30T23:22:10.570Z,22.60
2019-04-30T23:24:40.285Z,21.52
2019-04-30T23:27:10.143Z,20.30
2019-04-30T23:29:39.961Z,21.05
2019-04-30T23:32:13.405Z,22.80
2019-04-30T23:34:41.988Z,22.85
2019-04-30T23:37:14.244Z,21.37
2019-04-30T23:39:44.045Z,22.40
2019-04-30T23:42:13.805Z,22.15
2019-04-30T23:44:43.447Z,21.55
2019-04-30T23:47:13.205Z,23.00
2019-04-30T23:49:42.903Z,21.30
2019-04-30T23:52:12.621Z,23.07
2019-04-30T23:54:42.386Z,23.38
2019-04-30T23:57:12.061Z,24.52
2019-04-30T23:59:42.719Z,22.17
